createdAt,value
2023-09-27T00:00:57.990Z,15.00
2023-09-27T00:01:57.994Z,15.01
2023-09-27T00:02:57.995Z,15.00
2023-09-27T00:03:57.923Z,14.98
2023-09-27T00:04:57.967Z,14.96
2023-09-27T00:05:57.927Z,14.94
2023-09-27T00:06:57.880Z,14.95
2023-09-27T00:07:57.937Z,14.96
2023-09-27T00:08:57.840Z,14.97
2023-09-27T00:09:57.820Z,14.99
2023-09-27T00:10:57.854Z,15.00
2023-09-27T00:11:57.804Z,15.01
2023-09-27T00:12:57.787Z,15.01
2023-09-27T00:13:57.800Z,15.03
2023-09-27T00:14:57.769Z,15.04
2023-09-27T00:15:57.768Z,15.06
2023-09-27T00:16:57.830Z,15.07
2023-09-27T00:17:57.782Z,15.09
2023-09-27T00:18:57.851Z,15.11
2023-09-27T00:19:57.745Z,15.12
2023-09-27T00:20:57.710Z,15.14
2023-09-27T00:21:57.678Z,15.15
2023-09-27T00:22:57.724Z,15.15
2023-09-27T00:23:57.691Z,15.15
2023-09-27T00:24:57.645Z,15.15
2023-09-27T00:25:57.719Z,15.15
2023-09-27T00:26:57.615Z,15.14
2023-09-27T00:27:57.631Z,15.13
2023-09-27T00:28:57.609Z,15.13
2023-09-27T00:29:57.565Z,15.13
2023-09-27T00:30:57.581Z,15.14
2023-09-27T00:31:57.618Z,15.14
2023-09-27T00:32:57.616Z,15.13
2023-09-27T00:33:57.516Z,15.12
2023-09-27T00:34:57.531Z,15.12
2023-09-27T00:35:57.499Z,15.12
2023-09-27T00:36:57.501Z,15.11
2023-09-27T00:37:57.494Z,15.10
2023-09-27T00:38:57.450Z,15.09
2023-09-27T00:39:57.442Z,15.06
2023-09-27T00:40:57.460Z,15.02
2023-09-27T00:41:57.410Z,14.97
2023-09-27T00:42:57.425Z,14.92
2023-09-27T00:43:57.448Z,14.87
2023-09-27T00:44:57.378Z,14.84
2023-09-27T00:45:57.425Z,14.82
2023-09-27T00:46:57.423Z,14.81
2023-09-27T00:47:57.367Z,14.81
2023-09-27T00:48:57.343Z,14.81
2023-09-27T00:49:57.360Z,14.80
2023-09-27T00:50:57.314Z,14.80
2023-09-27T00:51:57.305Z,14.79
2023-09-27T00:52:57.299Z,14.78
2023-09-27T00:53:57.274Z,14.76
2023-09-27T00:54:57.262Z,14.74
2023-09-27T00:55:57.293Z,14.71
2023-09-27T00:56:57.231Z,14.68
2023-09-27T00:57:57.209Z,14.66
2023-09-27T00:58:57.242Z,14.65
2023-09-27T00:59:57.197Z,14.64
2023-09-27T01:00:57.193Z,14.64
2023-09-27T01:01:57.233Z,14.64
2023-09-27T01:02:57.314Z,14.65
2023-09-27T01:03:57.143Z,14.67
2023-09-27T01:04:57.163Z,14.68
2023-09-27T01:05:57.172Z,14.70
2023-09-27T01:06:57.105Z,14.72
2023-09-27T01:07:57.148Z,14.73
2023-09-27T01:08:57.097Z,14.75
2023-09-27T01:09:57.047Z,14.77
2023-09-27T01:10:57.094Z,14.78
2023-09-27T01:11:57.060Z,14.79
2023-09-27T01:12:57.162Z,14.80
2023-09-27T01:13:57.015Z,14.81
2023-09-27T01:14:56.998Z,14.82
2023-09-27T01:15:56.996Z,14.82
2023-09-27T01:16:56.980Z,14.82
2023-09-27T01:17:57.009Z,14.82
2023-09-27T01:18:57.162Z,14.81
2023-09-27T01:19:56.935Z,14.81
2023-09-27T01:20:56.927Z,14.80
2023-09-27T01:21:56.914Z,14.79
2023-09-27T01:22:56.968Z,14.78
2023-09-27T01:23:56.866Z,14.77
2023-09-27T01:24:56.857Z,14.75
2023-09-27T01:25:56.881Z,14.74
2023-09-27T01:26:56.843Z,14.73
2023-09-27T01:27:56.815Z,14.72
2023-09-27T01:28:56.972Z,14.72
2023-09-27T01:29:56.809Z,14.73
2023-09-27T01:30:56.784Z,14.74
2023-09-27T01:31:56.914Z,14.74
2023-09-27T01:32:56.812Z,14.75
2023-09-27T01:33:56.740Z,14.76
2023-09-27T01:34:56.754Z,14.76
2023-09-27T01:35:56.722Z,14.77
2023-09-27T01:36:56.720Z,14.79
2023-09-27T01:37:56.752Z,14.82
2023-09-27T01:38:56.734Z,14.82
2023-09-27T01:39:56.671Z,14.82
2023-09-27T01:40:56.701Z,14.82
2023-09-27T01:41:56.640Z,14.81
2023-09-27T01:42:56.634Z,14.81
2023-09-27T01:43:56.656Z,14.80
2023-09-27T01:44:56.601Z,14.78
2023-09-27T01:45:56.643Z,14.77
2023-09-27T01:46:56.625Z,14.76
2023-09-27T01:47:56.642Z,14.74
2023-09-27T01:48:56.548Z,14.73
2023-09-27T01:49:56.590Z,14.71
2023-09-27T01:50:56.534Z,14.71
2023-09-27T01:51:56.513Z,14.70
2023-09-27T01:52:56.532Z,14.69
2023-09-27T01:53:56.492Z,14.68
2023-09-27T01:54:56.497Z,14.67
2023-09-27T01:55:56.492Z,14.67
2023-09-27T01:56:56.465Z,14.67
2023-09-27T01:57:56.452Z,14.68
2023-09-27T01:58:56.451Z,14.69
2023-09-27T01:59:56.406Z,14.69
2023-09-27T02:00:56.398Z,14.70
2023-09-27T02:01:56.508Z,14.71
2023-09-27T02:02:56.462Z,14.71
2023-09-27T02:03:56.401Z,14.72
2023-09-27T02:04:56.396Z,14.72
2023-09-27T02:05:56.372Z,14.72
2023-09-27T02:06:56.306Z,14.71
2023-09-27T02:07:56.381Z,14.70
2023-09-27T02:08:56.386Z,14.69
2023-09-27T02:09:56.275Z,14.68
2023-09-27T02:10:56.286Z,14.66
2023-09-27T02:11:56.277Z,14.64
2023-09-27T02:12:56.242Z,14.63
2023-09-27T02:13:56.261Z,14.63
2023-09-27T02:14:56.203Z,14.63
2023-09-27T02:15:56.255Z,14.63
2023-09-27T02:16:56.179Z,14.64
2023-09-27T02:17:56.207Z,14.64
2023-09-27T02:18:56.139Z,14.64
2023-09-27T02:19:56.216Z,14.66
2023-09-27T02:20:56.118Z,14.68
2023-09-27T02:21:56.105Z,14.68
2023-09-27T02:22:56.230Z,14.67
2023-09-27T02:23:56.094Z,14.66
2023-09-27T02:24:56.075Z,14.65
2023-09-27T02:25:56.106Z,14.64
2023-09-27T02:26:56.029Z,14.64
2023-09-27T02:27:56.052Z,14.64
2023-09-27T02:28:56.503Z,14.64
2023-09-27T02:29:56.004Z,14.64
2023-09-27T02:30:56.080Z,14.65
2023-09-27T02:31:56.046Z,14.65
2023-09-27T02:32:56.022Z,14.65
2023-09-27T02:33:55.951Z,14.65
2023-09-27T02:34:55.943Z,14.64
2023-09-27T02:35:55.939Z,14.62
2023-09-27T02:36:55.915Z,14.60
2023-09-27T02:37:55.936Z,14.58
2023-09-27T02:38:55.887Z,14.55
2023-09-27T02:39:55.877Z,14.53
2023-09-27T02:40:55.880Z,14.52
2023-09-27T02:41:55.851Z,14.50
2023-09-27T02:42:55.855Z,14.48
2023-09-27T02:43:55.842Z,14.47
2023-09-27T02:44:55.800Z,14.46
2023-09-27T02:45:55.872Z,14.46
2023-09-27T02:46:55.789Z,14.45
2023-09-27T02:47:55.872Z,14.44
2023-09-27T02:48:55.902Z,14.43
2023-09-27T02:49:55.804Z,14.42
2023-09-27T02:50:55.713Z,14.41
2023-09-27T02:51:55.721Z,14.40
2023-09-27T02:52:55.746Z,14.39
2023-09-27T02:53:55.716Z,14.38
2023-09-27T02:54:55.660Z,14.37
2023-09-27T02:55:55.668Z,14.36
2023-09-27T02:56:55.633Z,14.36
2023-09-27T02:57:56.482Z,14.36
2023-09-27T02:58:55.714Z,14.35
2023-09-27T02:59:55.597Z,14.35
2023-09-27T03:00:55.657Z,14.35
2023-09-27T03:01:55.642Z,14.35
2023-09-27T03:02:55.639Z,14.35
2023-09-27T03:03:55.643Z,14.35
2023-09-27T03:04:55.569Z,14.35
2023-09-27T03:05:55.543Z,14.34
2023-09-27T03:06:55.516Z,14.33
2023-09-27T03:07:55.588Z,14.31
2023-09-27T03:08:55.551Z,14.28
2023-09-27T03:09:55.470Z,14.27
2023-09-27T03:10:55.489Z,14.27
2023-09-27T03:11:55.458Z,14.28
2023-09-27T03:12:55.450Z,14.29
2023-09-27T03:13:55.530Z,14.29
2023-09-27T03:14:55.414Z,14.30
2023-09-27T03:15:55.431Z,14.30
2023-09-27T03:16:55.443Z,14.30
2023-09-27T03:17:55.401Z,14.29
2023-09-27T03:18:55.657Z,14.29
2023-09-27T03:19:55.378Z,14.28
2023-09-27T03:20:55.332Z,14.27
2023-09-27T03:21:55.325Z,14.26
2023-09-27T03:22:55.337Z,14.26
2023-09-27T03:23:55.317Z,14.25
2023-09-27T03:24:55.268Z,14.24
2023-09-27T03:25:55.286Z,14.24
2023-09-27T03:26:55.248Z,14.23
2023-09-27T03:27:55.250Z,14.23
2023-09-27T03:28:55.450Z,14.22
2023-09-27T03:29:55.224Z,14.21
2023-09-27T03:30:55.185Z,14.21
2023-09-27T03:31:55.259Z,14.21
2023-09-27T03:32:55.270Z,14.20
2023-09-27T03:33:55.148Z,14.18
2023-09-27T03:34:55.189Z,14.16
2023-09-27T03:35:55.154Z,14.15
2023-09-27T03:36:55.096Z,14.14
2023-09-27T03:37:55.141Z,14.12
2023-09-27T03:38:55.176Z,14.10
2023-09-27T03:39:55.076Z,14.08
2023-09-27T03:40:55.077Z,14.06
2023-09-27T03:41:55.047Z,14.04
2023-09-27T03:42:55.012Z,14.02
2023-09-27T03:43:55.032Z,14.01
2023-09-27T03:44:55.016Z,14.00
2023-09-27T03:45:54.998Z,13.99
2023-09-27T03:46:55.063Z,13.98
2023-09-27T03:47:55.092Z,13.97
2023-09-27T03:48:55.204Z,13.97
2023-09-27T03:49:54.997Z,13.96
2023-09-27T03:50:54.916Z,13.96
2023-09-27T03:51:54.924Z,13.96
2023-09-27T03:52:54.972Z,13.96
2023-09-27T03:53:54.875Z,13.96
2023-09-27T03:54:54.883Z,13.96
2023-09-27T03:55:54.884Z,13.96
2023-09-27T03:56:54.838Z,13.95
2023-09-27T03:57:54.913Z,13.94
2023-09-27T03:58:54.972Z,13.94
2023-09-27T03:59:54.804Z,13.94
2023-09-27T04:00:54.782Z,13.94
2023-09-27T04:01:54.824Z,13.95
2023-09-27T04:02:54.932Z,13.96
2023-09-27T04:03:54.856Z,13.96
2023-09-27T04:04:54.840Z,13.96
2023-09-27T04:05:54.708Z,13.97
2023-09-27T04:06:54.719Z,13.96
2023-09-27T04:07:54.708Z,13.96
2023-09-27T04:08:54.869Z,13.94
2023-09-27T04:09:54.670Z,13.92
2023-09-27T04:10:54.667Z,13.90
2023-09-27T04:11:54.660Z,13.87
2023-09-27T04:12:54.617Z,13.84
2023-09-27T04:13:54.657Z,13.81
2023-09-27T04:14:54.609Z,13.79
2023-09-27T04:15:54.658Z,13.76
2023-09-27T04:16:54.585Z,13.74
2023-09-27T04:17:54.573Z,13.72
2023-09-27T04:18:54.898Z,13.71
2023-09-27T04:19:54.549Z,13.69
2023-09-27T04:20:54.541Z,13.68
2023-09-27T04:21:54.532Z,13.67
2023-09-27T04:22:54.484Z,13.66
2023-09-27T04:23:54.479Z,13.66
2023-09-27T04:24:54.482Z,13.66
2023-09-27T04:25:54.460Z,13.66
2023-09-27T04:26:54.453Z,13.66
2023-09-27T04:27:54.431Z,13.66
2023-09-27T04:28:54.574Z,13.67
2023-09-27T04:29:54.403Z,13.67
2023-09-27T04:30:54.403Z,13.67
2023-09-27T04:31:54.372Z,13.68
2023-09-27T04:32:54.392Z,13.68
2023-09-27T04:33:54.353Z,13.68
2023-09-27T04:35:01.085Z,13.68
2023-09-27T04:35:54.342Z,13.68
2023-09-27T04:36:54.303Z,13.69
2023-09-27T04:37:54.353Z,13.69
2023-09-27T04:38:54.385Z,13.68
2023-09-27T04:39:54.293Z,13.66
2023-09-27T04:40:54.278Z,13.64
2023-09-27T04:41:54.222Z,13.61
2023-09-27T04:42:54.193Z,13.57
2023-09-27T04:43:54.250Z,13.52
2023-09-27T04:44:54.274Z,13.46
2023-09-27T04:45:54.315Z,13.42
2023-09-27T04:46:54.150Z,13.38
2023-09-27T04:47:54.198Z,13.35
2023-09-27T04:48:54.338Z,13.32
2023-09-27T04:49:54.120Z,13.30
2023-09-27T04:50:54.139Z,13.28
2023-09-27T04:51:54.091Z,13.27
2023-09-27T04:52:54.074Z,13.26
2023-09-27T04:53:54.092Z,13.26
2023-09-27T04:54:54.052Z,13.26
2023-09-27T04:55:54.068Z,13.25
2023-09-27T04:56:54.033Z,13.25
2023-09-27T04:57:54.058Z,13.25
2023-09-27T04:58:54.117Z,13.25
2023-09-27T04:59:54.007Z,13.26
2023-09-27T05:00:54.045Z,13.27
2023-09-27T05:01:53.950Z,13.28
2023-09-27T05:02:54.013Z,13.29
2023-09-27T05:03:53.930Z,13.31
2023-09-27T05:04:53.912Z,13.32
2023-09-27T05:05:53.926Z,13.34
2023-09-27T05:06:53.869Z,13.34
2023-09-27T05:07:53.943Z,13.33
2023-09-27T05:08:54.127Z,13.31
2023-09-27T05:09:53.848Z,13.30
2023-09-27T05:10:53.887Z,13.30
2023-09-27T05:11:54.436Z,13.30
2023-09-27T05:12:53.804Z,13.30
2023-09-27T05:13:53.773Z,13.30
2023-09-27T05:14:53.763Z,13.30
2023-09-27T05:15:53.914Z,13.31
2023-09-27T05:16:53.748Z,13.32
2023-09-27T05:17:53.738Z,13.33
2023-09-27T05:18:53.830Z,13.34
2023-09-27T05:19:53.700Z,13.34
2023-09-27T05:20:53.682Z,13.35
2023-09-27T05:21:53.675Z,13.35
2023-09-27T05:22:53.666Z,13.35
2023-09-27T05:23:53.628Z,13.35
2023-09-27T05:24:53.620Z,13.34
2023-09-27T05:25:53.639Z,13.34
2023-09-27T05:26:53.607Z,13.33
2023-09-27T05:27:53.665Z,13.33
2023-09-27T05:28:53.784Z,13.32
2023-09-27T05:29:53.568Z,13.32
2023-09-27T05:30:53.583Z,13.33
2023-09-27T05:31:53.546Z,13.34
2023-09-27T05:32:53.547Z,13.35
2023-09-27T05:33:53.567Z,13.36
2023-09-27T05:34:53.503Z,13.36
2023-09-27T05:35:53.482Z,13.36
2023-09-27T05:36:53.453Z,13.37
2023-09-27T05:37:53.451Z,13.37
2023-09-27T05:38:53.607Z,13.37
2023-09-27T05:39:53.418Z,13.36
2023-09-27T05:40:53.414Z,13.35
2023-09-27T05:41:53.395Z,13.32
2023-09-27T05:42:53.420Z,13.30
2023-09-27T05:43:53.351Z,13.28
2023-09-27T05:44:53.344Z,13.27
2023-09-27T05:45:53.388Z,13.25
2023-09-27T05:46:53.348Z,13.22
2023-09-27T05:47:53.404Z,13.18
2023-09-27T05:48:53.440Z,13.17
2023-09-27T05:49:53.281Z,13.15
2023-09-27T05:50:53.269Z,13.14
2023-09-27T05:51:53.254Z,13.13
2023-09-27T05:52:53.280Z,13.13
2023-09-27T05:53:53.312Z,13.13
2023-09-27T05:54:53.197Z,13.15
2023-09-27T05:55:53.221Z,13.17
2023-09-27T05:56:53.185Z,13.19
2023-09-27T05:57:53.242Z,13.22
2023-09-27T05:58:53.349Z,13.24
2023-09-27T05:59:53.163Z,13.26
2023-09-27T06:00:53.126Z,13.28
2023-09-27T06:01:53.758Z,13.29
2023-09-27T06:02:53.554Z,13.31
2023-09-27T06:03:53.152Z,13.33
2023-09-27T06:04:53.066Z,13.35
2023-09-27T06:05:53.074Z,13.37
2023-09-27T06:06:53.057Z,13.38
2023-09-27T06:07:53.041Z,13.39
2023-09-27T06:08:53.285Z,13.39
2023-09-27T06:09:53.004Z,13.40
2023-09-27T06:10:53.000Z,13.40
2023-09-27T06:11:52.989Z,13.40
2023-09-27T06:12:52.959Z,13.39
2023-09-27T06:13:52.940Z,13.38
2023-09-27T06:14:52.932Z,13.37
2023-09-27T06:15:52.985Z,13.36
2023-09-27T06:16:52.969Z,13.35
2023-09-27T06:17:53.031Z,13.35
2023-09-27T06:18:53.104Z,13.35
2023-09-27T06:19:52.865Z,13.36
2023-09-27T06:20:52.887Z,13.37
2023-09-27T06:21:52.836Z,13.37
2023-09-27T06:22:52.820Z,13.38
2023-09-27T06:23:52.819Z,13.40
2023-09-27T06:24:52.904Z,13.42
2023-09-27T06:25:52.821Z,13.44
2023-09-27T06:26:52.765Z,13.46
2023-09-27T06:27:52.796Z,13.47
2023-09-27T06:28:53.037Z,13.49
2023-09-27T06:29:52.720Z,13.49
2023-09-27T06:30:52.787Z,13.50
2023-09-27T06:31:52.802Z,13.51
2023-09-27T06:32:52.833Z,13.53
2023-09-27T06:33:52.667Z,13.54
2023-09-27T06:34:52.687Z,13.54
2023-09-27T06:35:52.736Z,13.55
2023-09-27T06:36:52.654Z,13.54
2023-09-27T06:37:52.727Z,13.53
2023-09-27T06:38:52.903Z,13.53
2023-09-27T06:39:52.629Z,13.54
2023-09-27T06:40:52.612Z,13.56
2023-09-27T06:41:52.590Z,13.58
2023-09-27T06:42:52.966Z,13.60
2023-09-27T06:43:52.581Z,13.62
2023-09-27T06:44:52.529Z,13.64
2023-09-27T06:45:52.576Z,13.66
2023-09-27T06:46:52.572Z,13.69
2023-09-27T06:47:52.602Z,13.72
2023-09-27T06:48:52.643Z,13.74
2023-09-27T06:49:52.460Z,13.75
2023-09-27T06:50:52.461Z,13.76
2023-09-27T06:51:52.436Z,13.78
2023-09-27T06:52:59.907Z,13.80
2023-09-27T06:53:52.435Z,13.81
2023-09-27T06:54:52.393Z,13.81
2023-09-27T06:55:52.374Z,13.80
2023-09-27T06:56:52.380Z,13.78
2023-09-27T06:57:52.388Z,13.76
2023-09-27T06:58:52.535Z,13.77
2023-09-27T06:59:52.304Z,13.78
2023-09-27T07:00:52.346Z,13.81
2023-09-27T07:01:52.289Z,13.84
2023-09-27T07:02:52.368Z,13.87
2023-09-27T07:03:52.406Z,13.89
2023-09-27T07:04:52.238Z,13.90
2023-09-27T07:05:52.249Z,13.90
2023-09-27T07:06:52.248Z,13.90
2023-09-27T07:07:52.197Z,13.90
2023-09-27T07:08:52.303Z,13.89
2023-09-27T07:09:52.168Z,13.90
2023-09-27T07:10:52.202Z,13.91
2023-09-27T07:11:52.151Z,13.94
2023-09-27T07:12:52.202Z,13.97
2023-09-27T07:13:52.126Z,14.00
2023-09-27T07:14:52.107Z,14.03
2023-09-27T07:15:52.109Z,14.07
2023-09-27T07:17:00.773Z,14.11
2023-09-27T07:17:52.186Z,14.15
2023-09-27T07:18:52.356Z,14.20
2023-09-27T07:19:52.660Z,14.23
2023-09-27T07:20:52.141Z,14.27
2023-09-27T07:21:52.028Z,14.30
2023-09-27T07:22:52.024Z,14.34
2023-09-27T07:23:52.001Z,14.36
2023-09-27T07:24:51.974Z,14.38
2023-09-27T07:25:51.984Z,14.40
2023-09-27T07:26:52.003Z,14.43
2023-09-27T07:27:51.941Z,14.45
2023-09-27T07:28:52.328Z,14.46
2023-09-27T07:29:51.900Z,14.46
2023-09-27T07:30:51.957Z,14.47
2023-09-27T07:31:51.943Z,14.48
2023-09-27T07:32:51.943Z,14.49
2023-09-27T07:33:51.859Z,14.51
2023-09-27T07:34:51.834Z,14.53
2023-09-27T07:35:51.824Z,14.54
2023-09-27T07:36:51.811Z,14.57
2023-09-27T07:37:51.809Z,14.60
2023-09-27T07:38:52.103Z,14.63
2023-09-27T07:39:51.789Z,14.66
2023-09-27T07:40:51.776Z,14.69
2023-09-27T07:41:51.742Z,14.71
2023-09-27T07:42:51.725Z,14.74
2023-09-27T07:43:52.031Z,14.76
2023-09-27T07:44:51.719Z,14.79
2023-09-27T07:45:51.686Z,14.82
2023-09-27T07:46:51.687Z,14.84
2023-09-27T07:47:51.950Z,14.87
2023-09-27T07:48:51.963Z,14.90
2023-09-27T07:49:51.684Z,14.93
2023-09-27T07:50:54.100Z,14.96
2023-09-27T07:51:51.610Z,14.99
2023-09-27T07:52:51.601Z,15.01
2023-09-27T07:53:51.607Z,15.03
2023-09-27T07:54:51.568Z,15.05
2023-09-27T07:55:51.563Z,15.08
2023-09-27T07:56:52.240Z,15.11
2023-09-27T07:57:51.538Z,15.13
2023-09-27T07:58:51.763Z,15.16
2023-09-27T07:59:51.489Z,15.18
2023-09-27T08:00:51.704Z,15.20
2023-09-27T08:01:51.498Z,15.22
2023-09-27T08:02:52.076Z,15.24
2023-09-27T08:03:51.500Z,15.26
2023-09-27T08:04:51.426Z,15.28
2023-09-27T08:05:51.430Z,15.30
2023-09-27T08:06:51.446Z,15.33
2023-09-27T08:07:51.389Z,15.36
2023-09-27T08:08:51.566Z,15.38
2023-09-27T08:09:51.372Z,15.40
2023-09-27T08:10:51.458Z,15.42
2023-09-27T08:11:51.333Z,15.43
2023-09-27T08:12:51.334Z,15.45
2023-09-27T08:13:51.313Z,15.46
2023-09-27T08:14:51.315Z,15.48
2023-09-27T08:15:51.300Z,15.49
2023-09-27T08:16:51.414Z,15.51
2023-09-27T08:17:51.315Z,15.52
2023-09-27T08:18:51.567Z,15.54
2023-09-27T08:19:51.245Z,15.56
2023-09-27T08:20:51.370Z,15.58
2023-09-27T08:21:51.291Z,15.60
2023-09-27T08:22:51.199Z,15.62
2023-09-27T08:23:51.179Z,15.64
2023-09-27T08:24:51.176Z,15.66
2023-09-27T08:25:51.158Z,15.69
2023-09-27T08:26:51.163Z,15.71
2023-09-27T08:27:51.123Z,15.73
2023-09-27T08:28:51.233Z,15.75
2023-09-27T08:29:51.104Z,15.77
2023-09-27T08:30:51.160Z,15.78
2023-09-27T08:31:51.089Z,15.80
2023-09-27T08:32:51.147Z,15.82
2023-09-27T08:33:51.046Z,15.83
2023-09-27T08:34:51.040Z,15.84
2023-09-27T08:35:51.069Z,15.85
2023-09-27T08:36:51.021Z,15.86
2023-09-27T08:37:51.003Z,15.87
2023-09-27T08:38:51.164Z,15.87
2023-09-27T08:39:50.988Z,15.88
2023-09-27T08:40:50.968Z,15.89
2023-09-27T08:41:50.959Z,15.91
2023-09-27T08:42:50.931Z,15.92
2023-09-27T08:43:50.930Z,15.94
2023-09-27T08:44:50.915Z,15.96
2023-09-27T08:45:50.936Z,15.97
2023-09-27T08:46:50.885Z,15.99
2023-09-27T08:47:50.957Z,16.00
2023-09-27T08:48:50.965Z,16.02
2023-09-27T08:49:50.849Z,16.03
2023-09-27T08:50:50.876Z,16.05
2023-09-27T08:51:50.812Z,16.06
2023-09-27T08:52:50.832Z,16.08
2023-09-27T08:53:50.843Z,16.09
2023-09-27T08:54:50.786Z,16.11
2023-09-27T08:55:54.265Z,16.12
2023-09-27T08:56:50.778Z,16.13
2023-09-27T08:57:50.788Z,16.14
2023-09-27T08:58:50.979Z,16.15
2023-09-27T08:59:50.828Z,16.16
2023-09-27T09:00:50.712Z,16.17
2023-09-27T09:01:50.735Z,16.18
2023-09-27T09:02:50.875Z,16.19
2023-09-27T09:03:50.727Z,16.20
2023-09-27T09:04:50.644Z,16.21
2023-09-27T09:05:50.713Z,16.23
2023-09-27T09:06:50.629Z,16.25
2023-09-27T09:07:50.615Z,16.27
2023-09-27T09:08:50.623Z,16.29
2023-09-27T09:09:50.597Z,16.30
2023-09-27T09:10:50.636Z,16.32
2023-09-27T09:11:50.555Z,16.33
2023-09-27T09:12:50.553Z,16.34
2023-09-27T09:13:50.526Z,16.35
2023-09-27T09:14:50.521Z,16.36
2023-09-27T09:15:50.557Z,16.37
2023-09-27T09:16:50.508Z,16.38
2023-09-27T09:17:50.489Z,16.39
2023-09-27T09:18:50.622Z,16.39
2023-09-27T09:19:50.466Z,16.40
2023-09-27T09:20:50.615Z,16.40
2023-09-27T09:21:50.418Z,16.41
2023-09-27T09:22:50.412Z,16.42
2023-09-27T09:23:50.651Z,16.42
2023-09-27T09:24:50.410Z,16.43
2023-09-27T09:25:50.430Z,16.43
2023-09-27T09:26:50.442Z,16.44
2023-09-27T09:27:50.346Z,16.45
2023-09-27T09:28:52.824Z,16.46
2023-09-27T09:29:50.322Z,16.47
2023-09-27T09:30:50.326Z,16.48
2023-09-27T09:31:50.307Z,16.50
2023-09-27T09:32:50.490Z,16.51
2023-09-27T09:33:50.342Z,16.53
2023-09-27T09:34:50.249Z,16.56
2023-09-27T09:35:50.264Z,16.59
2023-09-27T09:36:52.934Z,16.63
2023-09-27T09:37:51.634Z,16.66
2023-09-27T09:38:50.236Z,16.70
2023-09-27T09:39:50.263Z,16.73
2023-09-27T09:40:50.187Z,16.75
2023-09-27T09:41:50.262Z,16.78
2023-09-27T09:42:50.147Z,16.79
2023-09-27T09:43:50.166Z,16.81
2023-09-27T09:44:50.116Z,16.83
2023-09-27T09:45:50.125Z,16.84
2023-09-27T09:46:50.203Z,16.85
2023-09-27T09:47:50.234Z,16.87
2023-09-27T09:48:50.081Z,16.88
2023-09-27T09:49:51.913Z,16.89
2023-09-27T09:50:50.109Z,16.90
2023-09-27T09:51:50.047Z,16.90
2023-09-27T09:52:50.018Z,16.91
2023-09-27T09:53:50.075Z,16.91
2023-09-27T09:56:28.426Z,18.04
2023-09-27T09:57:10.002Z,17.61
2023-09-27T09:58:02.070Z,17.34
2023-09-27T09:59:01.968Z,17.18
2023-09-27T10:00:01.944Z,17.10
2023-09-27T10:01:01.937Z,17.06
2023-09-27T10:02:01.920Z,17.05
2023-09-27T10:03:01.973Z,17.05
2023-09-27T10:04:02.038Z,17.06
2023-09-27T10:05:01.921Z,17.07
2023-09-27T10:06:01.884Z,17.09
2023-09-27T10:07:01.872Z,17.11
2023-09-27T10:08:01.873Z,17.14
2023-09-27T10:09:01.833Z,17.16
2023-09-27T10:10:01.833Z,17.18
2023-09-27T10:11:01.844Z,17.20
2023-09-27T10:12:01.853Z,17.22
2023-09-27T10:13:01.785Z,17.24
2023-09-27T10:14:01.782Z,17.26
2023-09-27T10:15:01.760Z,17.28
2023-09-27T10:16:01.755Z,17.30
2023-09-27T10:17:01.748Z,17.32
2023-09-27T10:18:01.767Z,17.33
2023-09-27T10:19:01.730Z,17.35
2023-09-27T10:20:01.683Z,17.36
2023-09-27T10:21:01.704Z,17.38
2023-09-27T10:22:01.671Z,17.40
2023-09-27T10:23:01.631Z,17.43
2023-09-27T10:24:01.623Z,17.47
2023-09-27T10:25:01.628Z,17.52
2023-09-27T10:26:01.599Z,17.56
2023-09-27T10:27:01.588Z,17.59
2023-09-27T10:28:01.566Z,17.62
2023-09-27T10:29:01.568Z,17.64
2023-09-27T10:30:01.559Z,17.66
2023-09-27T10:31:01.542Z,17.67
2023-09-27T10:32:01.521Z,17.68
2023-09-27T10:33:01.567Z,17.68
2023-09-27T10:34:01.499Z,17.69
2023-09-27T10:35:04.145Z,17.69
2023-09-27T10:36:01.697Z,17.69
2023-09-27T10:37:10.573Z,17.70
2023-09-27T10:38:01.546Z,17.71
2023-09-27T10:39:01.470Z,17.72
2023-09-27T10:40:01.476Z,17.73
2023-09-27T10:41:01.651Z,17.75
2023-09-27T10:42:01.492Z,17.76
2023-09-27T10:43:01.445Z,17.78
2023-09-27T10:44:01.431Z,17.79
2023-09-27T10:45:01.400Z,17.80
2023-09-27T10:46:01.371Z,17.80
2023-09-27T10:47:01.399Z,17.82
2023-09-27T10:48:01.386Z,17.83
2023-09-27T10:49:01.333Z,17.85
2023-09-27T10:50:01.318Z,17.86
2023-09-27T10:51:01.401Z,17.88
2023-09-27T10:52:06.995Z,17.91
2023-09-27T10:53:01.321Z,17.93
2023-09-27T10:54:01.275Z,17.95
2023-09-27T10:55:01.254Z,17.97
2023-09-27T10:56:01.238Z,17.98
2023-09-27T10:57:01.239Z,17.99
2023-09-27T10:58:01.313Z,18.00
2023-09-27T10:59:01.546Z,18.01
2023-09-27T11:00:01.231Z,18.01
2023-09-27T11:01:01.300Z,18.02
2023-09-27T11:02:01.267Z,18.03
2023-09-27T11:03:01.279Z,18.04
2023-09-27T11:04:01.255Z,18.05
2023-09-27T11:05:01.180Z,18.06
2023-09-27T11:06:01.198Z,18.08
2023-09-27T11:07:01.288Z,18.09
2023-09-27T11:08:01.153Z,18.10
2023-09-27T11:09:01.098Z,18.11
2023-09-27T11:10:01.083Z,18.12
2023-09-27T11:11:01.123Z,18.13
2023-09-27T11:12:01.334Z,18.15
2023-09-27T11:13:01.098Z,18.17
2023-09-27T11:14:01.056Z,18.19
2023-09-27T11:15:01.053Z,18.21
2023-09-27T11:16:01.042Z,18.22
2023-09-27T11:17:01.092Z,18.22
2023-09-27T11:18:01.084Z,18.23
2023-09-27T11:19:01.129Z,18.24
2023-09-27T11:20:01.092Z,18.26
2023-09-27T11:21:01.047Z,18.27
2023-09-27T11:22:01.633Z,18.29
2023-09-27T11:23:00.960Z,18.31
2023-09-27T11:24:01.004Z,18.33
2023-09-27T11:25:01.046Z,18.35
2023-09-27T11:26:00.926Z,18.37
2023-09-27T11:27:00.929Z,18.40
2023-09-27T11:28:00.926Z,18.43
2023-09-27T11:29:00.896Z,18.46
2023-09-27T11:30:00.896Z,18.48
2023-09-27T11:31:00.815Z,18.51
2023-09-27T11:32:01.000Z,18.53
2023-09-27T11:33:00.904Z,18.55
2023-09-27T11:34:00.877Z,18.57
2023-09-27T11:35:00.752Z,18.59
2023-09-27T11:36:02.194Z,18.62
2023-09-27T11:37:00.753Z,18.64
2023-09-27T11:38:00.723Z,18.66
2023-09-27T11:39:00.740Z,18.68
2023-09-27T11:40:00.699Z,18.72
2023-09-27T11:41:00.755Z,18.78
2023-09-27T11:42:00.707Z,18.84
2023-09-27T11:43:00.634Z,18.89
2023-09-27T11:44:00.633Z,18.93
2023-09-27T11:45:00.649Z,18.96
2023-09-27T11:46:00.642Z,18.99
2023-09-27T11:47:00.582Z,19.01
2023-09-27T11:48:00.656Z,19.03
2023-09-27T11:49:00.591Z,19.04
2023-09-27T11:50:00.547Z,19.06
2023-09-27T11:51:00.625Z,19.07
2023-09-27T11:52:01.500Z,19.09
2023-09-27T11:53:00.526Z,19.11
2023-09-27T11:54:00.507Z,19.12
2023-09-27T11:55:00.540Z,19.14
2023-09-27T11:56:00.577Z,19.16
2023-09-27T11:57:00.562Z,19.18
2023-09-27T11:58:00.589Z,19.21
2023-09-27T11:59:00.488Z,19.24
2023-09-27T12:00:00.610Z,19.27
2023-09-27T12:01:00.557Z,19.30
2023-09-27T12:02:06.454Z,19.34
2023-09-27T12:03:00.571Z,19.38
2023-09-27T12:04:01.065Z,19.42
2023-09-27T12:05:00.602Z,19.45
2023-09-27T12:06:00.475Z,19.48
2023-09-27T12:07:00.637Z,19.50
2023-09-27T12:08:00.289Z,19.52
2023-09-27T12:09:02.157Z,19.53
2023-09-27T12:10:00.301Z,19.54
2023-09-27T12:11:00.272Z,19.56
2023-09-27T12:12:00.253Z,19.59
2023-09-27T12:13:00.298Z,19.62
2023-09-27T12:14:00.244Z,19.64
2023-09-27T12:15:00.279Z,19.66
2023-09-27T12:16:00.591Z,19.67
2023-09-27T12:17:00.176Z,19.69
2023-09-27T12:18:00.268Z,19.70
2023-09-27T12:19:00.199Z,19.72
2023-09-27T12:20:00.194Z,19.74
2023-09-27T12:21:00.220Z,19.76
2023-09-27T12:22:00.133Z,19.78
2023-09-27T12:23:00.140Z,19.80
2023-09-27T12:24:00.120Z,19.82
2023-09-27T12:25:00.094Z,19.84
2023-09-27T12:26:00.152Z,19.86
2023-09-27T12:27:00.177Z,19.88
2023-09-27T12:28:00.154Z,19.90
2023-09-27T12:29:00.115Z,19.92
2023-09-27T12:30:00.036Z,19.94
2023-09-27T12:31:00.079Z,19.97
2023-09-27T12:32:00.042Z,20.01
2023-09-27T12:33:00.237Z,20.05
2023-09-27T12:34:00.023Z,20.09
2023-09-27T12:34:59.973Z,20.11
2023-09-27T12:35:59.979Z,20.14
2023-09-27T12:37:00.065Z,20.16
2023-09-27T12:38:00.007Z,20.18
2023-09-27T12:38:59.934Z,20.20
2023-09-27T12:40:00.020Z,20.21
2023-09-27T12:40:59.924Z,20.23
2023-09-27T12:41:59.893Z,20.26
2023-09-27T12:42:59.978Z,20.28
2023-09-27T12:43:59.882Z,20.31
2023-09-27T12:44:59.967Z,20.33
2023-09-27T12:45:59.875Z,20.35
2023-09-27T12:46:59.927Z,20.36
2023-09-27T12:48:00.053Z,20.38
2023-09-27T12:48:59.770Z,20.40
2023-09-27T12:50:01.419Z,20.42
2023-09-27T12:50:59.801Z,20.44
2023-09-27T12:51:59.777Z,20.46
2023-09-27T12:52:59.693Z,20.49
2023-09-27T12:53:59.739Z,20.51